Aeroporto :
LOGIN :

Iscrizione | Disclaimer

   EN    FR    IT 

 










Sommario :    VFR   VFR Marginale   IFR   IFR Intensivo   IFR Molto Intensivo
Visibilità : 
Base nubi : 
>= 8 km
>= 3000ft
5 / 8 km
1000 / 3000 ft
1500m / 5 km
500 / 1000 ft
800 / 1500m
200 / 500 ft
< 800m
< 200 ft
Simboli :   Temporali  Nebbia  Neve Forte  Precipitazioni Forti  Vento > 20 kt
SIGMETs :   Varie  Temporali  Ghiacco  Turbolenza  Onda orograficha  Ceneri Vulcaniche






- Altitudine del aeroporto : 257 ft
- Codice IATA : MAN


EGCC - Manchester

ULTIMO METAR :
  • 100520Z AUTO 28006KT 9999 NCD 10/09 Q1015 NOSIG

METARs OBSOLETI :
  • 100450Z AUTO 27006KT 9999 NCD 10/09 Q1015 NOSIG
  • 100420Z AUTO 25003KT 9999 NCD 09/08 Q1015 NOSIG
  • 100350Z AUTO 27008KT 9999 NCD 09/09 Q1015 NOSIG
  • 100320Z AUTO 29007KT 9999 NCD 10/09 Q1015
  • 100250Z AUTO 29007KT 9999 NCD 10/09 Q1015 NOSIG
  • 100220Z AUTO 28005KT 9999 NCD 11/10 Q1015 NOSIG

TAF AMD TAF EGCC
Valido dal 10 a 00 ore il 11 a 06 ore UTC


100027Z 1000/1106 30005KT 9999 SCT030
PROB30
TEMPO 1000/1003 4000 +SHRA BR BKN003
BECMG 1003/1006 30015KT
TEMPO 1007/1020 7000 SHRA BKN012
PROB30
TEMPO 1009/1018 4000 +SHRA BKN008CB
BECMG 1018/1021 30005KT
PROB30 1100/1106 7000 SHRA BKN012
ATIS : +44 161 499 2324



MetMap, La meteo Aeronautica in un colpo d'occhio ! - Copyright ORBIFLY Dicembre 2007 - Disclaimer

ORBIFLY MET'MAP TEAM :

Programmazione e sviluppo : Alexandra Zaïnal
Concezione : Baudouin d'Aumeries
Aiuto per la programmazione : Marc-Olivier Méhu
Supporto tecnico e logistico : Manuel Goepfert
Aiuto per la traduzione : Arnaldo La Scala

Contatto : metmap@orbifly.com




FONTI E CREDITI :

   NOAA